Carmen — SMGW — position and weather

sailwx.info

Track history (hours):
 
Tides and Currents Weather Stations Pressure Air Temp Water Temp Dewpoint Dewpoint Depression Visibility Wind Speed Wind Dir Waves Ship Positions

Carmen

Last reported at 2019-Feb-22 11:35 UTC. Time now 2019-Feb-23 17:43 UTC.
Position N 33°41' E 134°44'.

Length 231 m; draft 8.5 m.

Type: Cargo ship. MMSI: 266339000.

Date/timePositionNaut miles runAvg speedWind from/ knotsBaromVisibWave heightAir tempDewpointWater temp
2019-Feb-22 11:35N 33°41' E 134°44'1118.0
2019-Feb-22 10:59N 33°50' E 134°52'817.3
2019-Feb-22 10:30N 33°58' E 134°54'816.8
2019-Feb-22 10:00N 34°06' E 134°56'714.9
2019-Feb-22 09:30N 34°13' E 134°58'815.8
2019-Feb-22 09:01N 34°21' E 134°59'1019.0
2019-Feb-22 08:31N 34°29' E 135°05'510.0
2019-Feb-22 08:00N 34°35' E 135°05'713.1
2019-Feb-22 07:28N 34°36' E 134°57'816.9
2019-Feb-22 07:00N 34°39' E 134°48'4 2.4
2019-Feb-22 05:19N 34°43' E 134°51'0 0.0
2019-Feb-22 00:07N 34°43' E 134°51'0 0.0
2019-Feb-21 22:54N 34°43' E 134°51'1 1.3
2019-Feb-21 22:30N 34°42' E 134°50'3 3.9
2019-Feb-21 21:49N 34°40' E 134°49'0 0.0
2019-Feb-21 21:28N 34°40' E 134°49'0 0.1
2019-Feb-21 20:46N 34°40' E 134°49'0 0.0
2019-Feb-21 20:25N 34°40' E 134°49'0 0.0
2019-Feb-21 19:40N 34°40' E 134°49'0 0.0
2019-Feb-21 19:28N 34°40' E 134°49'0 0.0
2019-Feb-21 18:52N 34°40' E 134°49'0 0.0
2019-Feb-21 18:13N 34°40' E 134°49'0 0.0
2019-Feb-21 17:58N 34°40' E 134°49'0 0.0
2019-Feb-21 17:22N 34°40' E 134°49'0 0.0
2019-Feb-21 16:58N 34°40' E 134°49'0 0.0
2019-Feb-21 16:28N 34°40' E 134°49'0 0.0
2019-Feb-21 15:58N 34°40' E 134°49'0 0.0
2019-Feb-21 15:28N 34°40' E 134°49'0 0.1
2019-Feb-21 14:52N 34°40' E 134°49'0 0.0
2019-Feb-21 14:13N 34°40' E 134°49'0 0.0
2019-Feb-21 13:52N 34°40' E 134°49'0 0.1
2019-Feb-21 13:28N 34°40' E 134°49'0 0.0
2019-Feb-21 12:16N 34°40' E 134°49'0 0.0
2019-Feb-21 11:22N 34°40' E 134°49'0 0.1
2019-Feb-21 10:58N 34°40' E 134°49'0 0.1
2019-Feb-21 10:19N 34°40' E 134°49'0 0.0
2019-Feb-21 09:52N 34°40' E 134°49'0 0.0
2019-Feb-21 09:10N 34°40' E 134°49'0 0.1
2019-Feb-21 08:58N 34°40' E 134°49'0 0.1
2019-Feb-21 08:07N 34°40' E 134°49'0 0.1
2019-Feb-21 07:58N 34°40' E 134°49'0 0.4
2019-Feb-21 07:30N 34°40' E 134°49'2 4.4
2019-Feb-21 07:00N 34°39' E 134°51'713.9
2019-Feb-21 06:30N 34°38' E 134°60'713.9
2019-Feb-21 06:00N 34°34' E 135°07'4 7.6
2019-Feb-21 05:30N 34°31' E 135°08'714.1
2019-Feb-21 05:00N 34°24' E 135°05'714.6
2019-Feb-21 04:30N 34°19' E 134°59'815.0
2019-Feb-21 04:00N 34°11' E 135°00'713.1
2019-Feb-21 03:31N 34°05' E 134°59'713.3
2019-Feb-21 03:00N 33°58' E 134°59'913.0
2019-Feb-21 02:20N 33°49' E 134°59'413.2
2019-Feb-21 02:00N 33°45' E 135°01'712.7
2019-Feb-21 01:27N 33°39' E 135°04'  
2019-Feb-17 18:00N 31°12' E 138°24'14211.8 320 / 251020.210.8 12.3 21.6
2019-Feb-17 06:00N 29°00' E 137°24'16513.7 340 / 121017.2 2.2 13.7 20.6
2019-Feb-16 18:00N 26°24' E 136°24'31613.2 270 / 191015.310.8 20.2 22.5
2019-Feb-15 18:00N 21°30' E 134°18'19015.9 160 / 101018.710.8 24.1 26.4
2019-Feb-15 06:00N 18°30' E 133°12'19616.4 1018.410.8 25.5 26.7
2019-Feb-14 18:00N 15°24' E 132°06'8013.3 090 / 251017.110.8 25.6 25.8
2019-Feb-14 12:00N 14°06' E 131°48'9916.5 080 / 231017.9 5.4 26.3 27.0
2019-Feb-14 06:00N 12°36' E 131°06'30917.2 070 / 231014.010.8 28.4 27.0
2019-Feb-13 12:00N 07°42' E 129°30'21317.7 050 / 141014.810.8 26.8 27.0
2019-Feb-13 00:00N 04°24' E 128°12'27122.6 060 / 191014.010.8 27.2 27.0
2019-Feb-12 12:00N 00°06' E 126°48'   350 / 161014.210.8 26.9 28.0
Track history (hours):
 
Tides and Currents Weather Stations Pressure Air Temp Water Temp Dewpoint Dewpoint Depression Visibility Wind Speed Wind Dir Waves Ship Positions

Carmen

Last reported at 2019-Feb-22 11:35 UTC. Time now 2019-Feb-23 17:43 UTC.
Position N 33°41' E 134°44'.

Length 231 m; draft 8.5 m.

Type: Cargo ship. MMSI: 266339000.

Date/timePositionNaut miles runAvg speedWind from/ knotsBaromVisibWave heightAir tempDewpointWater temp
2019-Feb-22 11:35N 33°41' E 134°44'1118.0
2019-Feb-22 10:59N 33°50' E 134°52'817.3
2019-Feb-22 10:30N 33°58' E 134°54'816.8
2019-Feb-22 10:00N 34°06' E 134°56'714.9
2019-Feb-22 09:30N 34°13' E 134°58'815.8
2019-Feb-22 09:01N 34°21' E 134°59'1019.0
2019-Feb-22 08:31N 34°29' E 135°05'510.0
2019-Feb-22 08:00N 34°35' E 135°05'713.1
2019-Feb-22 07:28N 34°36' E 134°57'816.9
2019-Feb-22 07:00N 34°39' E 134°48'4 2.4
2019-Feb-22 05:19N 34°43' E 134°51'0 0.0
2019-Feb-22 00:07N 34°43' E 134°51'0 0.0
2019-Feb-21 22:54N 34°43' E 134°51'1 1.3
2019-Feb-21 22:30N 34°42' E 134°50'3 3.9
2019-Feb-21 21:49N 34°40' E 134°49'0 0.0
2019-Feb-21 21:28N 34°40' E 134°49'0 0.1
2019-Feb-21 20:46N 34°40' E 134°49'0 0.0
2019-Feb-21 20:25N 34°40' E 134°49'0 0.0
2019-Feb-21 19:40N 34°40' E 134°49'0 0.0
2019-Feb-21 19:28N 34°40' E 134°49'0 0.0
2019-Feb-21 18:52N 34°40' E 134°49'0 0.0
2019-Feb-21 18:13N 34°40' E 134°49'0 0.0
2019-Feb-21 17:58N 34°40' E 134°49'0 0.0
2019-Feb-21 17:22N 34°40' E 134°49'0 0.0
2019-Feb-21 16:58N 34°40' E 134°49'0 0.0
2019-Feb-21 16:28N 34°40' E 134°49'0 0.0
2019-Feb-21 15:58N 34°40' E 134°49'0 0.0
2019-Feb-21 15:28N 34°40' E 134°49'0 0.1
2019-Feb-21 14:52N 34°40' E 134°49'0 0.0
2019-Feb-21 14:13N 34°40' E 134°49'0 0.0
2019-Feb-21 13:52N 34°40' E 134°49'0 0.1
2019-Feb-21 13:28N 34°40' E 134°49'0 0.0
2019-Feb-21 12:16N 34°40' E 134°49'0 0.0
2019-Feb-21 11:22N 34°40' E 134°49'0 0.1
2019-Feb-21 10:58N 34°40' E 134°49'0 0.1
2019-Feb-21 10:19N 34°40' E 134°49'0 0.0
2019-Feb-21 09:52N 34°40' E 134°49'0 0.0
2019-Feb-21 09:10N 34°40' E 134°49'0 0.1
2019-Feb-21 08:58N 34°40' E 134°49'0 0.1
2019-Feb-21 08:07N 34°40' E 134°49'0 0.1
2019-Feb-21 07:58N 34°40' E 134°49'0 0.4
2019-Feb-21 07:30N 34°40' E 134°49'2 4.4
2019-Feb-21 07:00N 34°39' E 134°51'713.9
2019-Feb-21 06:30N 34°38' E 134°60'713.9
2019-Feb-21 06:00N 34°34' E 135°07'4 7.6
2019-Feb-21 05:30N 34°31' E 135°08'714.1
2019-Feb-21 05:00N 34°24' E 135°05'714.6
2019-Feb-21 04:30N 34°19' E 134°59'815.0
2019-Feb-21 04:00N 34°11' E 135°00'713.1
2019-Feb-21 03:31N 34°05' E 134°59'713.3
2019-Feb-21 03:00N 33°58' E 134°59'913.0
2019-Feb-21 02:20N 33°49' E 134°59'413.2
2019-Feb-21 02:00N 33°45' E 135°01'712.7
2019-Feb-21 01:27N 33°39' E 135°04'  
2019-Feb-17 18:00N 31°12' E 138°24'14211.8 320 / 251020.210.8 12.3 21.6
2019-Feb-17 06:00N 29°00' E 137°24'16513.7 340 / 121017.2 2.2 13.7 20.6
2019-Feb-16 18:00N 26°24' E 136°24'31613.2 270 / 191015.310.8 20.2 22.5
2019-Feb-15 18:00N 21°30' E 134°18'19015.9 160 / 101018.710.8 24.1 26.4
2019-Feb-15 06:00N 18°30' E 133°12'19616.4 1018.410.8 25.5 26.7
2019-Feb-14 18:00N 15°24' E 132°06'8013.3 090 / 251017.110.8 25.6 25.8
2019-Feb-14 12:00N 14°06' E 131°48'9916.5 080 / 231017.9 5.4 26.3 27.0
2019-Feb-14 06:00N 12°36' E 131°06'30917.2 070 / 231014.010.8 28.4 27.0
2019-Feb-13 12:00N 07°42' E 129°30'21317.7 050 / 141014.810.8 26.8 27.0
2019-Feb-13 00:00N 04°24' E 128°12'27122.6 060 / 191014.010.8 27.2 27.0
2019-Feb-12 12:00N 00°06' E 126°48'   350 / 161014.210.8 26.9 28.0

Dump ship's entire track history